Accueil
METAR-TAF:

METAR-TAF

Aéroports :

Laurinburg-Maxton Airport

Maxton, Caroline du Nord, États-Unis

latitude: 34-47-29N, longitude: 079-22-05W, altitude: 67 m

Observation

Le bulletin a été fait il y a 1 heure et 0 minutes, à 21:52 UTC
Vent 14 kt de ouest
Température 12°C
Humidité 32%
Pression 1015 hPa
Visibilité: 16.1 km
Ciel couvert à une hauteur de 9000 ft

METAR: KMEB 282152Z AUTO 26014KT 10SM OVC090 12/M04 A2997 RMK AO2 PK WND 28026/2117 SLP150 T01221039

Heure: 17:52 (22:52 UTC)


TAF: absent

Observations et prévisions météorologiques de plus de 4000 aéroports (messages METAR et TAF).

Les stations disponibles sont représentées par des disques jaunes et rouges sur la carte.

Passer la souris dessus pour voir le nom de la station.

Cliquer dessus pour voir les observations et prévisions météorologiques.

Pour changer de carte: cliquez sur les boutons verts avec une croix noire pour zoomer, sur le bouton vert avec un tiret pour effectuer un zoom arrière, ou sur les flèches vertes pour les cartes adjacentes.


METAR-TAF: